Time;durP1;ratioP1;P1;durP2;ratioP2;P2;SDS_P1;SDS_P2;PMS_P1;PMS_P2;Temp;Humidity;BMP_temperature;BMP_pressure;BME280_temperature;BME280_humidity;BME280_pressure;Samples;Min_cycle;Max_cycle;Signal;HPM_P1;HPM_P2
2021/11/16 00:02:20;;;;;;;117.13;94.40;;;;;;;5.86;86.84;102153.95;1686632;83;20981;-76
2021/11/16 00:04:47;;;;;;;120.90;92.88;;;;;;;5.86;86.84;102153.53;1698080;83;20942;-76
2021/11/16 00:07:13;;;;;;;123.25;95.57;;;;;;;5.88;86.83;102160.86;1652013;84;20902;-76
2021/11/16 00:09:39;;;;;;;128.93;87.27;;;;;;;5.88;86.83;102156.14;1658780;86;20939;-76
2021/11/16 00:12:06;;;;;;;128.07;88.57;;;;;;;5.87;86.83;102148.86;1700063;83;21790;-76
2021/11/16 00:14:32;;;;;;;107.47;83.45;;;;;;;5.89;86.82;102152.37;1654736;84;20935;-76
2021/11/16 00:16:58;;;;;;;120.05;90.12;;;;;;;5.89;86.84;102149.80;1671014;84;20911;-76
2021/11/16 00:19:27;;;;;;;111.68;78.42;;;;;;;5.90;86.84;102156.67;1693397;83;20923;-76
2021/11/16 00:21:56;;;;;;;114.70;88.55;;;;;;;5.91;86.81;102145.99;1659895;84;20972;-76
2021/11/16 00:24:32;;;;;;;109.48;83.05;;;;;;;5.91;86.82;102148.56;1646074;86;20974;-76
2021/11/16 00:26:49;;;;;;;126.70;89.20;;;;;;;5.92;86.83;102146.45;1638346;86;20916;-76
2021/11/16 00:29:16;;;;;;;125.53;86.93;;;;;;;5.93;86.83;102152.04;1646805;86;21654;-76
2021/11/16 00:31:42;;;;;;;112.70;84.97;;;;;;;5.93;86.83;102156.77;1654994;86;20905;-76
2021/11/16 00:34:11;;;;;;;121.60;83.92;;;;;;;5.94;86.83;102150.80;1648908;86;20939;-76
2021/11/16 00:36:37;;;;;;;114.87;80.67;;;;;;;5.95;86.81;102147.82;1649977;85;20898;-76
2021/11/16 00:39:03;;;;;;;117.05;90.60;;;;;;;5.95;86.82;102143.55;1645218;86;20920;-76
2021/11/16 00:41:30;;;;;;;128.62;107.27;;;;;;;5.96;86.80;102144.42;1697765;83;21450;-76
2021/11/16 00:43:56;;;;;;;121.28;105.70;;;;;;;5.97;86.81;102141.90;1693324;83;20947;-76
2021/11/16 00:46:22;;;;;;;130.95;102.25;;;;;;;5.96;86.82;102142.72;1703027;82;20959;-76
2021/11/16 00:48:48;;;;;;;131.30;95.80;;;;;;;5.97;86.81;102144.88;1701859;83;20930;-76
2021/11/16 00:51:15;;;;;;;115.90;88.35;;;;;;;5.98;86.80;102146.62;1680750;83;20946;-76
2021/11/16 00:53:41;;;;;;;110.17;90.35;;;;;;;5.99;86.81;102141.94;1683287;83;20942;-76
2021/11/16 00:56:10;;;;;;;113.25;79.82;;;;;;;5.98;86.78;102145.34;1697835;83;20957;-76
2021/11/16 00:58:37;;;;;;;115.20;86.45;;;;;;;5.99;86.84;102140.66;1671062;84;20928;-76
2021/11/16 01:01:04;;;;;;;116.20;93.67;;;;;;;6.00;86.82;102136.39;1674392;83;20922;-76
2021/11/16 01:03:32;;;;;;;119.80;88.90;;;;;;;6.01;86.82;102135.15;1695743;83;20930;-76
2021/11/16 01:05:59;;;;;;;123.67;90.20;;;;;;;6.02;86.85;102130.47;1689168;83;20959;-76
2021/11/16 01:08:26;;;;;;;129.63;101.82;;;;;;;6.03;86.82;102128.77;1700047;83;20875;-76
2021/11/16 01:10:53;;;;;;;;;;;;;;;6.03;86.80;102127.48;1704284;83;20927;-76
2021/11/16 01:13:22;;;;;;;103.72;73.78;;;;;;;6.02;86.78;102126.62;1684444;83;20106;-76
2021/11/16 01:15:50;;;;;;;1999.90;999.90;;;;;;;6.01;86.80;102126.16;1697785;83;20907;-76
2021/11/16 01:18:18;;;;;;;157.37;141.37;;;;;;;6.01;86.79;102128.73;1687207;83;20939;-76
2021/11/16 01:20:46;;;;;;;119.53;84.35;;;;;;;6.02;86.81;102125.75;1702005;83;20915;-76
2021/11/16 01:23:14;;;;;;;126.85;94.42;;;;;;;6.02;86.82;102123.18;1704133;83;20922;-76
2021/11/16 01:25:44;;;;;;;114.47;82.70;;;;;;;6.02;86.82;102121.48;1691835;83;20883;-76
2021/11/16 01:28:11;;;;;;;125.75;83.50;;;;;;;6.02;86.83;102121.48;1685636;84;20950;-76
2021/11/16 01:30:46;;;;;;;110.60;91.63;;;;;;;6.04;86.84;102123.67;1699866;83;20899;-76
2021/11/16 01:33:15;;;;;;;1530.70;777.78;;;;;;;6.04;86.83;102124.96;1700029;83;20927;-76
2021/11/16 01:35:43;;;;;;;136.28;105.15;;;;;;;6.04;86.82;102121.11;1695557;83;20923;-76
2021/11/16 01:38:12;;;;;;;113.37;90.87;;;;;;;6.04;86.82;102127.53;1687218;83;21301;-76
2021/11/16 01:40:41;;;;;;;140.18;120.33;;;;;;;6.05;86.83;102124.13;1698957;84;20930;-76
2021/11/16 01:43:09;;;;;;;125.12;104.87;;;;;;;6.04;86.82;102121.11;1691857;83;20918;-76
2021/11/16 01:45:39;;;;;;;126.90;94.52;;;;;;;6.04;86.82;102113.41;1694538;84;20943;-76
2021/11/16 01:48:07;;;;;;;121.60;95.65;;;;;;;6.04;86.83;102113.82;1699467;83;20986;-76
2021/11/16 01:50:35;;;;;;;125.53;96.92;;;;;;;6.05;86.85;102115.56;1683754;84;21576;-76
2021/11/16 01:53:01;;;;;;;117.95;87.40;;;;;;;6.05;86.84;102116.43;1696966;84;21047;-77
2021/11/16 01:55:27;;;;;;;128.15;104.63;;;;;;;6.05;86.82;102116.84;1688702;83;21305;-76
2021/11/16 01:57:55;;;;;;;130.18;103.47;;;;;;;6.04;86.84;102111.25;1684968;83;21065;-76
2021/11/16 02:00:29;;;;;;;127.97;89.45;;;;;;;6.05;86.86;102112.58;1694514;84;25318;-76
2021/11/16 02:02:57;;;;;;;112.45;91.53;;;;;;;6.06;86.85;102107.89;1697415;84;20955;-76
2021/11/16 02:05:40;;;;;;;122.78;79.95;;;;;;;6.07;86.87;102103.63;1688517;83;21078;-76
2021/11/16 02:08:08;;;;;;;139.35;124.33;;;;;;;6.07;86.88;102100.65;1674839;84;21318;-76
2021/11/16 02:10:41;;;;;;;122.28;95.70;;;;;;;6.07;86.88;102103.63;1695859;84;21585;-76
2021/11/16 02:13:08;;;;;;;119.30;89.13;;;;;;;6.07;86.85;102105.78;1689827;83;20968;-76
2021/11/16 02:15:37;;;;;;;133.27;90.55;;;;;;;6.06;86.86;102104.46;1694978;84;21847;-76
2021/11/16 02:18:02;;;;;;;119.13;82.95;;;;;;;6.06;86.87;102102.76;1668181;85;21379;-76
2021/11/16 02:20:31;;;;;;;127.22;90.12;;;;;;;6.06;86.88;102104.46;1686339;83;20958;-76
2021/11/16 02:22:57;;;;;;;121.25;81.32;;;;;;;6.06;86.92;102092.91;1687653;84;20879;-76
2021/11/16 02:25:23;;;;;;;126.27;80.32;;;;;;;6.06;86.86;102091.63;1699036;84;20910;-76
2021/11/16 02:27:49;;;;;;;120.97;81.57;;;;;;;6.06;86.90;102092.91;1698794;83;20942;-76
2021/11/16 02:30:16;;;;;;;114.52;75.00;;;;;;;6.06;86.91;102097.63;1687726;84;20903;-76
2021/11/16 02:32:46;;;;;;;114.00;75.05;;;;;;;6.06;86.88;102094.19;1694973;84;20951;-76
2021/11/16 02:35:18;;;;;;;111.90;78.60;;;;;;;6.06;86.88;102085.20;1699296;83;20927;-76
2021/11/16 02:37:46;;;;;;;176.37;134.30;;;;;;;6.06;86.92;102080.94;1692046;84;20880;-76
2021/11/16 02:40:13;;;;;;;122.62;84.32;;;;;;;6.06;86.91;102081.34;1688237;84;20907;-76
2021/11/16 02:42:39;;;;;;;126.33;76.92;;;;;;;6.06;86.93;102072.36;1696534;83;21542;-76
2021/11/16 02:45:09;;;;;;;125.82;76.70;;;;;;;6.07;86.94;102072.81;1700909;83;20954;-76
2021/11/16 02:47:35;;;;;;;122.53;78.07;;;;;;;6.07;86.92;102077.95;1699872;83;20887;-76
2021/11/16 02:50:02;;;;;;;118.85;74.75;;;;;;;6.07;86.94;102063.41;1694550;84;20958;-76
2021/11/16 02:52:28;;;;;;;121.00;77.97;;;;;;;6.07;86.93;102055.71;1701737;83;20939;-76
2021/11/16 02:54:58;;;;;;;122.58;74.92;;;;;;;6.07;86.93;102055.71;1696220;83;20915;-76
2021/11/16 02:57:24;;;;;;;125.40;73.20;;;;;;;6.05;86.91;102052.23;1693645;83;20903;-76
2021/11/16 02:59:51;;;;;;;127.65;72.30;;;;;;;6.06;86.94;102052.69;1698686;84;20887;-76
2021/11/16 03:02:17;;;;;;;117.85;72.97;;;;;;;6.06;86.93;102051.82;1700021;83;24774;-76
2021/11/16 03:04:44;;;;;;;124.67;77.10;;;;;;;6.06;86.94;102053.97;1661498;84;20959;-76
2021/11/16 03:07:13;;;;;;;132.05;78.72;;;;;;;6.05;86.94;102044.95;1690572;84;20907;-76
2021/11/16 03:09:49;;;;;;;116.35;70.22;;;;;;;6.06;86.95;102046.69;1680164;84;21526;-76
2021/11/16 03:12:15;;;;;;;125.75;72.90;;;;;;;6.06;86.96;102052.69;1698309;84;20974;-76
2021/11/16 03:14:41;;;;;;;128.53;72.67;;;;;;;6.07;86.94;102054.84;1693897;83;21805;-76
2021/11/16 03:17:07;;;;;;;118.63;71.60;;;;;;;6.07;86.93;102050.99;1684171;84;20907;-76
2021/11/16 03:19:42;;;;;;;122.45;73.12;;;;;;;6.04;86.89;102056.05;1697557;83;21502;-76
2021/11/16 03:22:09;;;;;;;126.63;69.67;;;;;;;6.02;86.92;102054.72;1690130;83;21185;-76
2021/11/16 03:24:35;;;;;;;;;;;;;;;6.02;86.95;102049.59;1693703;83;21741;-76
2021/11/16 03:27:09;;;;;;;1537.30;779.20;;;;;;;6.01;86.94;102047.85;1707744;83;20160;-76
2021/11/16 03:29:32;;;;;;;127.32;97.57;;;;;;;6.01;86.95;102041.44;1689465;83;21053;-76
2021/11/16 03:32:08;;;;;;;125.67;79.35;;;;;;;6.01;86.95;102049.55;1657706;84;21046;-76
2021/11/16 03:34:30;;;;;;;113.62;78.92;;;;;;;6.00;86.95;102047.39;1663443;82;21448;-76
2021/11/16 03:36:57;;;;;;;126.07;77.75;;;;;;;6.00;86.97;102053.81;1699599;83;21066;-76
2021/11/16 03:39:24;;;;;;;116.35;72.60;;;;;;;6.01;86.95;102050.83;1684387;83;21033;-76
2021/11/16 03:41:50;;;;;;;124.53;74.95;;;;;;;6.02;86.95;102056.01;1695206;83;21035;-76
2021/11/16 03:44:17;;;;;;;118.08;73.35;;;;;;;6.02;86.95;102057.30;1699309;83;23445;-76
2021/11/16 03:46:43;;;;;;;;;;;;;;;6.02;86.92;102050.87;1685451;83;21055;-76
2021/11/16 03:49:13;;;;;;;106.65;62.38;;;;;;;6.02;86.93;102051.28;1703154;82;20201;-76
2021/11/16 03:51:44;;;;;;;104.25;66.00;;;;;;;6.02;86.93;102051.28;1698357;82;21110;-76
2021/11/16 03:54:11;;;;;;;112.68;68.67;;;;;;;6.02;86.93;102047.44;1670141;84;21498;-76
2021/11/16 03:56:37;;;;;;;;;;;;;;;6.02;86.92;102050.87;1684634;82;20886;-76
2021/11/16 03:59:04;;;;;;;118.42;83.62;;;;;;;6.02;86.87;102055.14;1674226;84;20086;-76
2021/11/16 04:01:30;;;;;;;113.37;80.32;;;;;;;6.01;86.86;102052.12;1695263;82;26262;-76
2021/11/16 04:03:59;;;;;;;80.83;65.97;;;;;;;5.99;86.85;102043.09;1701860;83;20915;-76
2021/11/16 04:06:25;;;;;;;124.45;99.92;;;;;;;5.99;86.85;102046.94;1703446;83;20883;-76
2021/11/16 04:08:51;;;;;;;114.77;81.17;;;;;;;5.98;86.84;102046.08;1704534;83;20868;-76
2021/11/16 04:11:18;;;;;;;109.63;71.77;;;;;;;5.99;86.83;102043.09;1687762;82;21463;-76
2021/11/16 04:13:45;;;;;;;107.50;77.17;;;;;;;5.98;86.84;102047.36;1699306;83;21870;-76
2021/11/16 04:16:11;;;;;;;;;;;;;;;5.98;86.84;102042.22;1656523;84;20934;-76
2021/11/16 04:18:38;;;;;;;103.58;65.72;;;;;;;5.98;86.83;102042.22;1704070;83;20097;-76
2021/11/16 04:21:05;;;;;;;117.28;71.62;;;;;;;5.98;86.82;102046.08;1679281;83;20942;-76
2021/11/16 04:23:32;;;;;;;109.48;69.37;;;;;;;5.98;86.79;102042.64;1694525;83;20907;-76
2021/11/16 04:25:58;;;;;;;116.15;82.53;;;;;;;5.95;86.79;102038.30;1697842;82;21806;-76
2021/11/16 04:28:25;;;;;;;116.08;75.32;;;;;;;5.94;86.77;102031.83;1705647;83;20911;-76
2021/11/16 04:30:53;;;;;;;110.95;71.37;;;;;;;5.94;86.80;102033.98;1699978;82;20950;-76
2021/11/16 04:33:21;;;;;;;115.00;71.25;;;;;;;5.93;86.78;102028.81;1667457;84;21536;-76
2021/11/16 04:35:48;;;;;;;115.32;70.10;;;;;;;5.95;86.81;102031.00;1664943;86;21440;-76
2021/11/16 04:38:18;;;;;;;108.57;73.60;;;;;;;5.97;86.83;102035.34;1662388;84;21403;-76
2021/11/16 04:40:51;;;;;;;114.20;67.45;;;;;;;5.98;86.78;102029.38;1623725;86;21376;-76
2021/11/16 04:43:20;;;;;;;106.30;64.55;;;;;;;5.98;86.78;102030.67;1673800;84;21494;-76
2021/11/16 04:45:50;;;;;;;106.90;63.48;;;;;;;5.98;86.77;102029.38;1645011;84;20918;-76
2021/11/16 05:04:24;;;;;;;106.70;68.78;;;;;;;6.00;86.74;102012.73;1663867;84;21074;-76
2021/11/16 05:06:52;;;;;;;129.87;108.73;;;;;;;5.98;86.72;102011.83;1708318;82;21742;-76
2021/11/16 05:09:17;;;;;;;119.05;95.47;;;;;;;5.97;86.73;102012.24;1685925;82;21486;-76
2021/11/16 05:11:43;;;;;;;123.50;80.53;;;;;;;5.97;86.74;102010.95;1692934;84;21036;-76
2021/11/16 05:14:10;;;;;;;117.73;76.37;;;;;;;5.96;86.74;102010.50;1659826;86;21025;-76
2021/11/16 05:16:36;;;;;;;110.42;70.83;;;;;;;5.96;86.71;102011.79;1696159;82;22121;-76
2021/11/16 05:19:02;;;;;;;118.63;74.53;;;;;;;5.98;86.73;102011.83;1693530;82;21129;-77
2021/11/16 05:21:28;;;;;;;110.35;73.85;;;;;;;5.97;86.72;102007.11;1683597;83;21762;-78
2021/11/16 05:24:01;;;;;;;118.02;73.15;;;;;;;5.96;86.71;102004.09;1696475;83;21046;-78
2021/11/16 05:26:29;;;;;;;;;;;;;;;5.96;86.71;102005.38;1673220;83;21066;-77
2021/11/16 05:28:58;;;;;;;111.25;65.32;;;;;;;5.97;86.67;102005.82;1656882;84;20213;-77
2021/11/16 05:31:24;;;;;;;104.58;67.15;;;;;;;5.95;86.68;102001.48;1715077;83;21120;-77
2021/11/16 05:33:52;;;;;;;99.22;67.32;;;;;;;5.94;86.68;102000.61;1705124;83;22147;-77
2021/11/16 05:36:21;;;;;;;1051.58;546.03;;;;;;;5.95;86.68;102004.05;1699601;83;21656;-77
2021/11/16 05:38:48;;;;;;;118.70;86.20;;;;;;;5.94;86.69;101998.05;1716141;82;21486;-77
2021/11/16 05:41:17;;;;;;;112.17;91.60;;;;;;;5.95;86.67;101998.91;1718016;83;20903;-77
2021/11/16 05:43:45;;;;;;;116.53;75.90;;;;;;;5.95;86.67;101997.22;1704138;83;21394;-77
2021/11/16 05:46:14;;;;;;;106.35;69.97;;;;;;;5.95;86.65;101998.91;1714525;83;20963;-77
2021/11/16 05:48:42;;;;;;;106.87;69.42;;;;;;;5.95;86.65;101997.62;1683546;83;21398;-78
2021/11/16 05:51:09;;;;;;;104.55;70.28;;;;;;;5.95;86.66;101998.50;1676884;84;20956;-78
2021/11/16 05:53:38;;;;;;;1522.48;770.38;;;;;;;5.95;86.65;101997.22;1670403;84;21377;-77
2021/11/16 05:56:04;;;;;;;117.65;71.95;;;;;;;5.95;86.66;102003.63;1667850;85;20923;-77
2021/11/16 05:58:31;;;;;;;110.97;69.37;;;;;;;5.94;86.63;101998.05;1675648;83;21396;-77
2021/11/16 06:00:57;;;;;;;104.45;66.25;;;;;;;5.94;86.65;102001.89;1692882;82;20973;-77
2021/11/16 06:03:24;;;;;;;108.17;70.00;;;;;;;5.95;86.62;102008.77;1665183;85;21441;-77
2021/11/16 06:05:52;;;;;;;118.60;73.37;;;;;;;5.95;86.63;102003.63;1709805;81;20918;-77
2021/11/16 06:08:22;;;;;;;108.30;69.63;;;;;;;5.94;86.63;101995.48;1704498;83;21714;-77
2021/11/16 06:10:48;;;;;;;105.47;67.80;;;;;;;5.94;86.60;101998.46;1690499;83;21423;-77
2021/11/16 06:13:21;;;;;;;113.22;67.15;;;;;;;5.95;86.61;101993.78;1700079;83;20921;-77
2021/11/16 06:15:48;;;;;;;113.40;69.80;;;;;;;5.94;86.60;101994.61;1697939;83;23182;-78
2021/11/16 06:18:15;;;;;;;106.75;64.42;;;;;;;5.93;86.60;101991.59;1680135;85;21442;-78
2021/11/16 06:20:44;;;;;;;112.00;68.70;;;;;;;5.94;86.62;101988.19;1665659;85;20952;-78
2021/11/16 06:23:11;;;;;;;104.50;65.32;;;;;;;5.93;86.59;101988.61;1674230;84;20950;-78
2021/11/16 06:25:39;;;;;;;109.32;64.10;;;;;;;5.94;86.60;101994.20;1674785;85;21539;-78
2021/11/16 06:28:05;;;;;;;150.82;126.02;;;;;;;5.95;86.63;101992.49;1671515;85;21566;-78
2021/11/16 06:30:32;;;;;;;116.85;77.60;;;;;;;5.95;86.62;101993.36;1678698;85;21527;-78
2021/11/16 06:32:58;;;;;;;119.62;70.30;;;;;;;5.95;86.62;101998.50;1673372;83;21618;-78
2021/11/16 06:35:25;;;;;;;121.60;70.27;;;;;;;5.96;86.62;101998.08;1658492;86;20920;-78
2021/11/16 06:37:52;;;;;;;118.53;69.12;;;;;;;5.96;86.61;102001.52;1700192;83;21734;-78
2021/11/16 06:40:19;;;;;;;110.15;67.05;;;;;;;5.94;86.60;102003.17;1704784;83;21097;-78
2021/11/16 06:42:46;;;;;;;109.75;66.53;;;;;;;5.94;86.58;101999.33;1680774;84;21667;-78
2021/11/16 06:45:13;;;;;;;115.52;65.40;;;;;;;5.94;86.59;101995.48;1674600;84;21056;-78
2021/11/16 06:47:41;;;;;;;104.87;64.20;;;;;;;5.94;86.61;101996.76;1682022;84;21439;-78
2021/11/16 06:50:08;;;;;;;107.83;67.17;;;;;;;5.95;86.58;102006.20;1718890;82;20906;-78
2021/11/16 06:52:37;;;;;;;113.35;65.67;;;;;;;5.94;86.58;102003.17;1715212;82;20953;-78
2021/11/16 06:55:09;;;;;;;117.28;65.97;;;;;;;5.95;86.58;102003.63;1694794;83;21037;-78
2021/11/16 06:57:36;;;;;;;115.67;65.67;;;;;;;5.93;86.54;102003.14;1718207;82;20983;-78
2021/11/16 07:00:07;;;;;;;129.30;102.20;;;;;;;5.92;86.56;102006.13;1717293;82;21516;-78
2021/11/16 07:02:39;;;;;;;118.20;89.67;;;;;;;5.92;86.55;102000.12;1710721;83;21013;-78
2021/11/16 07:05:13;;;;;;;117.57;82.42;;;;;;;5.92;86.59;102001.41;1712542;82;21097;-78
2021/11/16 07:07:45;;;;;;;113.57;77.75;;;;;;;5.92;86.60;102004.84;1713503;82;21050;-78
2021/11/16 07:10:15;;;;;;;126.15;81.25;;;;;;;5.93;86.62;102002.73;1711023;82;21053;-78
2021/11/16 07:12:44;;;;;;;118.37;72.85;;;;;;;5.94;86.57;102002.31;1718675;83;20895;-78
2021/11/16 07:15:12;;;;;;;114.60;70.60;;;;;;;5.94;86.57;102000.61;1716112;82;21013;-78
2021/11/16 07:17:39;;;;;;;121.22;75.57;;;;;;;5.94;86.57;102002.31;1715717;82;21004;-78
2021/11/16 07:20:07;;;;;;;118.13;71.72;;;;;;;5.94;86.56;101999.33;1716155;83;21025;-78
2021/11/16 07:22:36;;;;;;;119.05;73.70;;;;;;;5.93;86.55;101998.88;1708615;82;21080;-78
2021/11/16 07:25:08;;;;;;;117.75;71.02;;;;;;;5.93;86.56;101996.72;1715073;83;21097;-78
2021/11/16 07:27:46;;;;;;;117.05;73.22;;;;;;;5.93;86.54;102001.44;1692937;82;21054;-78
2021/11/16 07:30:24;;;;;;;115.17;70.95;;;;;;;5.92;86.52;101992.00;1669763;84;21047;-78
2021/11/16 07:33:02;;;;;;;129.47;99.15;;;;;;;5.92;86.54;101994.57;1657577;85;20934;-78
2021/11/16 07:35:33;;;;;;;116.55;81.22;;;;;;;5.92;86.54;101996.27;1655450;86;20966;-78
2021/11/16 07:38:06;;;;;;;116.10;73.10;;;;;;;5.92;86.52;102007.82;1654598;84;20940;-78
2021/11/16 07:40:41;;;;;;;133.22;93.00;;;;;;;5.92;86.52;102007.41;1659197;85;20955;-78
2021/11/16 07:43:11;;;;;;;117.70;74.25;;;;;;;5.94;86.57;102004.88;1656121;86;20940;-78
2021/11/16 07:45:44;;;;;;;1999.90;999.90;;;;;;;5.98;86.57;102009.27;1652531;86;20962;-78
2021/11/16 07:48:18;;;;;;;120.75;78.92;;;;;;;5.99;86.55;102007.14;1654748;84;20937;-78
2021/11/16 07:50:59;;;;;;;116.73;75.72;;;;;;;6.00;86.54;102006.73;1691606;82;20906;-78
2021/11/16 07:53:39;;;;;;;141.80;114.08;;;;;;;6.01;86.54;102000.35;1698895;82;20915;-78
2021/11/16 07:56:10;;;;;;;122.02;77.58;;;;;;;6.03;86.53;102002.95;1679714;83;20903;-78
2021/11/16 07:58:47;;;;;;;127.60;107.27;;;;;;;6.03;86.51;102001.26;1667524;84;20942;-78
2021/11/16 08:01:37;;;;;;;116.67;74.62;;;;;;;6.04;86.48;101999.56;1696286;83;20919;-78
2021/11/16 08:04:09;;;;;;;111.95;71.92;;;;;;;6.04;86.48;101995.30;1696711;83;20871;-78
2021/11/16 08:06:39;;;;;;;126.65;74.42;;;;;;;6.03;86.51;101981.13;1622535;86;20978;-78
2021/11/16 08:09:38;;;;;;;106.15;69.47;;;;;;;6.02;86.38;101976.41;1650927;85;20960;-78
2021/11/16 08:14:45;;;;;;;108.83;61.80;;;;;;;6.03;86.52;101977.28;1669913;83;21065;-78
2021/11/16 08:17:13;;;;;;;104.87;61.23;;;;;;;6.04;86.51;101976.45;1695173;82;21069;-78
2021/11/16 08:19:42;;;;;;;110.20;63.50;;;;;;;6.05;86.54;101976.91;1681161;83;21101;-78
2021/11/16 08:22:12;;;;;;;107.10;63.33;;;;;;;6.07;86.56;101977.81;1700880;82;21105;-78
2021/11/16 08:24:42;;;;;;;110.88;62.27;;;;;;;6.07;86.53;101970.97;1688535;82;21058;-78
2021/11/16 08:27:15;;;;;;;129.30;99.67;;;;;;;6.08;86.50;101975.70;1693361;82;21096;-78
2021/11/16 08:29:46;;;;;;;133.00;86.57;;;;;;;6.08;86.49;101970.56;1684284;83;21070;-78
2021/11/16 08:32:20;;;;;;;135.12;83.33;;;;;;;6.09;86.52;101975.73;1695019;82;21451;-78
2021/11/16 08:34:54;;;;;;;128.42;81.17;;;;;;;6.10;86.49;101972.75;1677909;84;20934;-78
2021/11/16 08:37:25;;;;;;;124.92;76.30;;;;;;;6.09;86.51;101978.72;1705157;83;21298;-78
2021/11/16 08:40:00;;;;;;;120.40;72.78;;;;;;;6.08;86.49;101972.71;1658831;84;21034;-78
2021/11/16 08:42:31;;;;;;;115.82;71.97;;;;;;;6.09;86.47;101973.58;1684167;83;21041;-78
2021/11/16 08:45:04;;;;;;;118.77;67.82;;;;;;;6.08;86.48;101978.27;1693325;83;20993;-78
2021/11/16 08:47:34;;;;;;;124.30;77.35;;;;;;;6.08;86.48;101976.98;1686820;83;21576;-78
2021/11/16 08:50:04;;;;;;;119.40;78.25;;;;;;;6.08;86.53;101971.42;1669946;83;21129;-78
2021/11/16 08:52:32;;;;;;;130.32;74.47;;;;;;;6.10;86.55;101975.31;1691511;82;21136;-77
2021/11/16 08:55:12;;;;;;;137.92;78.72;;;;;;;6.12;86.57;101970.67;1655618;83;20963;-77
2021/11/16 08:57:46;;;;;;;132.40;72.03;;;;;;;6.13;86.55;101970.25;1655071;84;20912;-77
2021/11/16 09:00:35;;;;;;;117.35;66.02;;;;;;;6.15;86.56;101964.73;1657443;85;20896;-77
2021/11/16 09:03:16;;;;;;;118.33;67.80;;;;;;;6.14;86.51;101961.30;1640151;85;20929;-77
2021/11/16 09:05:48;;;;;;;114.60;71.97;;;;;;;6.17;86.53;101968.21;1697106;83;21113;-77
2021/11/16 09:08:24;;;;;;;125.62;72.95;;;;;;;6.17;86.50;101963.94;1698809;83;20888;-77
2021/11/16 09:10:54;;;;;;;124.38;68.83;;;;;;;6.17;86.51;101961.79;1679516;83;20867;-78
2021/11/16 09:13:25;;;;;;;123.00;73.02;;;;;;;6.19;86.50;101967.83;1672024;84;21342;-77
2021/11/16 09:15:56;;;;;;;124.20;65.08;;;;;;;6.19;86.48;101965.27;1616061;86;21061;-77
2021/11/16 09:18:39;;;;;;;117.10;66.72;;;;;;;6.20;86.51;101961.45;1615438;87;21004;-77
2021/11/16 09:21:12;;;;;;;1999.90;999.90;;;;;;;6.21;86.48;101963.60;1614859;85;20965;-77
2021/11/16 09:23:48;;;;;;;137.50;96.10;;;;;;;6.20;86.50;101957.59;1613664;86;20969;-77
2021/11/16 09:29:06;;;;;;;124.75;68.02;;;;;;;6.20;86.50;101957.59;1633284;86;20932;-78
2021/11/16 09:31:40;;;;;;;130.95;69.35;;;;;;;6.23;86.53;101950.38;1636075;86;21100;-78
2021/11/16 09:34:23;;;;;;;121.57;66.33;;;;;;;6.22;86.52;101943.09;1621963;86;21003;-78
2021/11/16 09:37:04;;;;;;;143.30;92.37;;;;;;;6.22;86.49;101939.66;1606118;86;20939;-78
2021/11/16 09:39:50;;;;;;;130.12;72.05;;;;;;;6.22;86.50;101931.53;1597337;85;21327;-78
2021/11/16 09:42:31;;;;;;;130.67;66.60;;;;;;;6.22;86.52;101930.25;1650410;85;20910;-78
2021/11/16 09:45:05;;;;;;;116.40;68.62;;;;;;;6.23;86.49;101925.56;1670571;84;20954;-78
2021/11/16 09:47:37;;;;;;;117.70;68.02;;;;;;;6.24;86.52;101922.13;1671585;84;20940;-78
2021/11/16 09:50:08;;;;;;;119.47;71.67;;;;;;;6.25;86.52;101920.02;1668501;85;20939;-78
2021/11/16 09:52:46;;;;;;;111.32;66.33;;;;;;;6.27;86.47;101929.03;1644217;86;21019;-77
2021/11/16 09:55:24;;;;;;;141.57;87.67;;;;;;;6.26;86.48;101920.46;1661002;84;21887;-77
2021/11/16 09:57:59;;;;;;;126.18;77.55;;;;;;;6.26;86.48;101916.61;1667274;84;20927;-78
2021/11/16 10:00:34;;;;;;;121.50;73.05;;;;;;;6.29;86.51;101928.66;1681202;84;20964;-78
2021/11/16 10:03:14;;;;;;;124.92;72.12;;;;;;;6.28;86.49;101927.78;1678679;83;21480;-78
2021/11/16 10:05:44;;;;;;;126.47;74.32;;;;;;;6.27;86.45;101919.62;1627813;86;20986;-78
2021/11/16 10:08:14;;;;;;;125.05;71.92;;;;;;;6.28;86.47;101917.92;1694966;82;21053;-78
2021/11/16 10:10:45;;;;;;;129.03;69.95;;;;;;;6.27;86.47;101910.64;1709677;83;21045;-78
2021/11/16 10:13:16;;;;;;;135.12;73.00;;;;;;;6.27;86.47;101903.34;1702277;83;21066;-77
2021/11/16 10:15:50;;;;;;;135.88;71.70;;;;;;;6.26;86.49;101899.05;1714397;82;21607;-77
2021/11/16 10:18:18;;;;;;;135.37;72.65;;;;;;;6.27;86.54;101899.50;1712869;82;20954;-77
2021/11/16 10:20:47;;;;;;;137.37;72.87;;;;;;;6.27;86.53;101897.80;1677332;84;21403;-78
2021/11/16 10:23:34;;;;;;;146.18;73.87;;;;;;;6.29;86.51;101893.56;1677477;83;21477;-78
2021/11/16 10:26:04;;;;;;;140.43;70.12;;;;;;;6.29;86.51;101893.98;1672328;85;20956;-78
2021/11/16 10:28:40;;;;;;;139.60;70.17;;;;;;;6.28;86.48;101894.39;1638251;85;21000;-77
2021/11/16 10:31:10;;;;;;;136.32;71.28;;;;;;;6.28;86.46;101892.24;1670262;84;20947;-77
2021/11/16 10:33:41;;;;;;;146.50;74.00;;;;;;;6.28;86.47;101892.24;1669864;85;20956;-77
2021/11/16 10:36:11;;;;;;;144.25;71.92;;;;;;;6.27;86.48;101895.64;1668081;85;21431;-77
2021/11/16 10:38:44;;;;;;;156.97;124.90;;;;;;;6.24;86.48;101886.17;1674809;85;20920;-77
2021/11/16 10:41:28;;;;;;;139.77;79.15;;;;;;;6.22;86.46;101887.87;1666856;85;20963;-78
2021/11/16 10:44:08;;;;;;;133.50;71.53;;;;;;;6.21;86.48;101888.70;1659252;85;20909;-78
2021/11/16 10:46:39;;;;;;;133.93;68.33;;;;;;;6.22;86.47;101889.57;1626514;86;21072;-78
2021/11/16 10:49:14;;;;;;;129.42;68.87;;;;;;;6.21;86.47;101884.84;1660501;84;21508;-78
2021/11/16 10:51:46;;;;;;;131.67;67.15;;;;;;;6.19;86.46;101872.81;1664629;85;21488;-77
2021/11/16 10:54:13;;;;;;;170.77;145.20;;;;;;;6.21;86.49;101872.42;1654699;85;20911;-77
2021/11/16 10:56:41;;;;;;;128.65;68.75;;;;;;;6.22;86.50;101872.88;1669445;85;20917;-77
2021/11/16 10:59:12;;;;;;;133.78;65.87;;;;;;;6.24;86.53;101873.74;1666381;85;20888;-77
2021/11/16 11:01:54;;;;;;;129.80;63.80;;;;;;;6.25;86.52;101868.64;1651927;85;20897;-77
2021/11/16 11:04:25;;;;;;;132.97;61.88;;;;;;;6.26;86.47;101863.09;1646081;84;20959;-78
2021/11/16 11:06:53;;;;;;;134.97;62.83;;;;;;;6.26;86.46;101854.09;1656296;86;20987;-78
2021/11/16 11:09:21;;;;;;;614.27;332.52;;;;;;;6.28;86.54;101857.15;1651970;86;20951;-78
2021/11/16 11:11:50;;;;;;;135.68;72.17;;;;;;;6.30;86.53;101852.05;1652062;86;20991;-77
2021/11/16 11:14:36;;;;;;;148.05;66.47;;;;;;;6.33;86.54;101852.53;1644437;86;20931;-77
2021/11/16 11:17:10;;;;;;;131.03;63.33;;;;;;;6.33;86.47;101846.97;1638915;86;20920;-77
2021/11/16 11:19:42;;;;;;;128.10;61.53;;;;;;;6.33;86.45;101855.09;1654027;86;20889;-77
2021/11/16 11:22:24;;;;;;;129.97;62.70;;;;;;;6.31;86.42;101853.78;1645005;86;20962;-77
2021/11/16 11:27:42;;;;;;;148.70;93.30;;;;;;;6.30;86.45;101846.48;1648877;86;20997;-77
2021/11/16 11:30:15;;;;;;;129.90;78.60;;;;;;;6.31;86.48;101842.22;1649220;86;20932;-77
2021/11/16 11:32:44;;;;;;;1535.98;779.05;;;;;;;6.31;86.44;101835.80;1645211;86;20943;-78
2021/11/16 11:35:23;;;;;;;1999.90;999.90;;;;;;;6.31;86.47;101828.09;1641385;86;20972;-78
2021/11/16 11:37:56;;;;;;;1999.90;999.90;;;;;;;6.32;86.49;101823.41;1650471;86;20938;-78
2021/11/16 11:40:38;;;;;;;1999.90;999.90;;;;;;;6.33;86.50;101826.42;1692585;82;20912;-77
2021/11/16 11:43:17;;;;;;;1999.90;999.90;;;;;;;6.35;86.51;101829.02;1673579;84;20891;-77
2021/11/16 11:45:46;;;;;;;1999.90;999.90;;;;;;;6.34;86.46;101827.29;1661014;85;20978;-77
2021/11/16 11:48:18;;;;;;;1999.90;999.90;;;;;;;6.32;86.43;101831.11;1666666;84;21162;-77